Terminal Aerodrome Forecast
Issued by NWS Portland, ME

Current Version | Previous Version | Text Only | Print | Product List | Glossary On
Versions: 1 2 3 4 5 6 7 8 9 10 11 12 13 14 15 16 17 18 19 20
000
FTUS41 KGYX 221720
TAFCON
TAF
KCON 221720Z 2218/2318 10005KT P6SM BKN025
     FM221900 12005KT P6SM -SHRA BKN025 OVC080
     FM222200 VRB03KT P6SM SCT025 BKN100
      TEMPO 2309/2312 3SM BR SCT002=

USA.gov is the U.S. government's official web portal to all federal, state and local government web resources and services.